sensor_id;sensor_type;location;lat;lon;timestamp;temperature;humidity
7192;DHT22;3637;51.494;11.958;2024-02-26T00:00:27;4.80;99.90
7192;DHT22;3637;51.494;11.958;2024-02-26T00:03:32;4.60;99.90
7192;DHT22;3637;51.494;11.958;2024-02-26T00:06:36;5.10;99.90
7192;DHT22;3637;51.494;11.958;2024-02-26T00:09:41;4.70;99.90
7192;DHT22;3637;51.494;11.958;2024-02-26T00:12:44;4.60;99.90
7192;DHT22;3637;51.494;11.958;2024-02-26T00:15:50;5.00;99.90
7192;DHT22;3637;51.494;11.958;2024-02-26T00:18:52;4.50;99.90
7192;DHT22;3637;51.494;11.958;2024-02-26T00:21:57;4.50;99.90
7192;DHT22;3637;51.494;11.958;2024-02-26T00:25:01;4.50;99.90
7192;DHT22;3637;51.494;11.958;2024-02-26T00:28:05;4.40;99.90
7192;DHT22;3637;51.494;11.958;2024-02-26T00:31:10;4.40;99.90
7192;DHT22;3637;51.494;11.958;2024-02-26T00:34:13;4.30;99.90
7192;DHT22;3637;51.494;11.958;2024-02-26T00:37:15;4.30;99.90
7192;DHT22;3637;51.494;11.958;2024-02-26T00:40:19;4.20;99.90
7192;DHT22;3637;51.494;11.958;2024-02-26T00:43:24;4.20;99.90
7192;DHT22;3637;51.494;11.958;2024-02-26T00:46:30;4.30;99.90
7192;DHT22;3637;51.494;11.958;2024-02-26T00:49:33;4.50;99.90
7192;DHT22;3637;51.494;11.958;2024-02-26T00:52:36;4.20;99.90
7192;DHT22;3637;51.494;11.958;2024-02-26T00:55:38;4.50;99.90
7192;DHT22;3637;51.494;11.958;2024-02-26T00:58:41;4.20;99.90
7192;DHT22;3637;51.494;11.958;2024-02-26T01:01:47;4.10;99.90
7192;DHT22;3637;51.494;11.958;2024-02-26T01:04:50;4.50;99.90
7192;DHT22;3637;51.494;11.958;2024-02-26T01:07:53;4.00;99.90
7192;DHT22;3637;51.494;11.958;2024-02-26T01:10:55;3.90;99.90
7192;DHT22;3637;51.494;11.958;2024-02-26T01:13:58;3.90;99.90
7192;DHT22;3637;51.494;11.958;2024-02-26T01:17:02;3.80;99.90
7192;DHT22;3637;51.494;11.958;2024-02-26T01:20:06;3.80;99.90
7192;DHT22;3637;51.494;11.958;2024-02-26T01:23:09;3.80;99.90
7192;DHT22;3637;51.494;11.958;2024-02-26T01:26:12;3.80;99.90
7192;DHT22;3637;51.494;11.958;2024-02-26T01:29:15;3.80;99.90
7192;DHT22;3637;51.494;11.958;2024-02-26T01:32:26;3.80;99.90
7192;DHT22;3637;51.494;11.958;2024-02-26T01:35:28;3.80;99.90
7192;DHT22;3637;51.494;11.958;2024-02-26T01:38:30;3.80;99.90
7192;DHT22;3637;51.494;11.958;2024-02-26T01:41:34;4.40;99.90
7192;DHT22;3637;51.494;11.958;2024-02-26T01:44:36;3.90;99.90
7192;DHT22;3637;51.494;11.958;2024-02-26T01:47:40;3.90;99.90
7192;DHT22;3637;51.494;11.958;2024-02-26T01:50:44;3.90;99.90
7192;DHT22;3637;51.494;11.958;2024-02-26T01:53:48;4.30;99.90
7192;DHT22;3637;51.494;11.958;2024-02-26T01:56:51;3.80;99.90
7192;DHT22;3637;51.494;11.958;2024-02-26T01:59:53;3.80;99.90
7192;DHT22;3637;51.494;11.958;2024-02-26T02:02:57;4.60;99.90
7192;DHT22;3637;51.494;11.958;2024-02-26T02:05:58;3.80;99.90
7192;DHT22;3637;51.494;11.958;2024-02-26T02:09:03;3.80;99.90
7192;DHT22;3637;51.494;11.958;2024-02-26T02:12:07;3.70;99.90
7192;DHT22;3637;51.494;11.958;2024-02-26T02:15:10;3.60;99.90
7192;DHT22;3637;51.494;11.958;2024-02-26T02:18:14;3.70;99.90
7192;DHT22;3637;51.494;11.958;2024-02-26T02:21:19;3.70;99.90
7192;DHT22;3637;51.494;11.958;2024-02-26T02:24:21;3.70;99.90
7192;DHT22;3637;51.494;11.958;2024-02-26T02:27:23;3.60;99.90
7192;DHT22;3637;51.494;11.958;2024-02-26T02:30:27;4.10;99.90
7192;DHT22;3637;51.494;11.958;2024-02-26T02:33:29;3.60;99.90
7192;DHT22;3637;51.494;11.958;2024-02-26T02:36:33;3.90;99.90
7192;DHT22;3637;51.494;11.958;2024-02-26T02:39:35;4.00;99.90
7192;DHT22;3637;51.494;11.958;2024-02-26T02:42:43;3.40;99.90
7192;DHT22;3637;51.494;11.958;2024-02-26T02:45:46;3.20;99.90
7192;DHT22;3637;51.494;11.958;2024-02-26T02:48:47;3.30;99.90
7192;DHT22;3637;51.494;11.958;2024-02-26T02:51:54;3.80;99.90
7192;DHT22;3637;51.494;11.958;2024-02-26T02:54:58;3.20;99.90
7192;DHT22;3637;51.494;11.958;2024-02-26T02:58:00;3.20;99.90
7192;DHT22;3637;51.494;11.958;2024-02-26T03:01:03;3.40;99.90
7192;DHT22;3637;51.494;11.958;2024-02-26T03:04:05;3.10;99.90
7192;DHT22;3637;51.494;11.958;2024-02-26T03:07:08;3.60;99.90
7192;DHT22;3637;51.494;11.958;2024-02-26T03:10:11;3.10;99.90
7192;DHT22;3637;51.494;11.958;2024-02-26T03:13:17;3.10;99.90
7192;DHT22;3637;51.494;11.958;2024-02-26T03:16:19;3.20;99.90
7192;DHT22;3637;51.494;11.958;2024-02-26T03:19:23;3.20;99.90
7192;DHT22;3637;51.494;11.958;2024-02-26T03:22:28;3.80;99.90
7192;DHT22;3637;51.494;11.958;2024-02-26T03:25:31;3.20;99.90
7192;DHT22;3637;51.494;11.958;2024-02-26T03:28:33;3.30;99.90
7192;DHT22;3637;51.494;11.958;2024-02-26T03:31:36;3.30;99.90
7192;DHT22;3637;51.494;11.958;2024-02-26T03:34:39;3.70;99.90
7192;DHT22;3637;51.494;11.958;2024-02-26T03:37:43;4.10;99.90
7192;DHT22;3637;51.494;11.958;2024-02-26T03:40:50;3.90;99.90
7192;DHT22;3637;51.494;11.958;2024-02-26T03:43:52;3.20;99.90
7192;DHT22;3637;51.494;11.958;2024-02-26T03:46:54;4.00;99.90
7192;DHT22;3637;51.494;11.958;2024-02-26T03:50:03;3.10;99.90
7192;DHT22;3637;51.494;11.958;2024-02-26T03:53:08;3.00;99.90
7192;DHT22;3637;51.494;11.958;2024-02-26T03:56:13;3.00;99.90
7192;DHT22;3637;51.494;11.958;2024-02-26T03:59:15;3.20;99.90
7192;DHT22;3637;51.494;11.958;2024-02-26T04:02:18;2.90;99.90
7192;DHT22;3637;51.494;11.958;2024-02-26T04:05:24;2.90;99.90
7192;DHT22;3637;51.494;11.958;2024-02-26T04:08:28;4.00;99.90
7192;DHT22;3637;51.494;11.958;2024-02-26T04:11:32;3.10;99.90
7192;DHT22;3637;51.494;11.958;2024-02-26T04:14:40;2.90;99.90
7192;DHT22;3637;51.494;11.958;2024-02-26T04:17:42;2.90;99.90
7192;DHT22;3637;51.494;11.958;2024-02-26T04:20:45;2.90;99.90
7192;DHT22;3637;51.494;11.958;2024-02-26T04:23:50;2.90;99.90
7192;DHT22;3637;51.494;11.958;2024-02-26T04:26:54;4.10;99.90
7192;DHT22;3637;51.494;11.958;2024-02-26T04:29:56;3.00;99.90
7192;DHT22;3637;51.494;11.958;2024-02-26T04:32:59;3.00;99.90
7192;DHT22;3637;51.494;11.958;2024-02-26T04:36:03;3.00;99.90
7192;DHT22;3637;51.494;11.958;2024-02-26T04:39:08;2.90;99.90
7192;DHT22;3637;51.494;11.958;2024-02-26T04:42:17;3.00;99.90
7192;DHT22;3637;51.494;11.958;2024-02-26T04:45:20;3.20;99.90
7192;DHT22;3637;51.494;11.958;2024-02-26T04:48:23;3.00;99.90
7192;DHT22;3637;51.494;11.958;2024-02-26T04:51:28;3.00;99.90
7192;DHT22;3637;51.494;11.958;2024-02-26T04:54:33;3.00;99.90
7192;DHT22;3637;51.494;11.958;2024-02-26T04:57:43;3.30;99.90
7192;DHT22;3637;51.494;11.958;2024-02-26T05:00:46;3.00;99.90
7192;DHT22;3637;51.494;11.958;2024-02-26T05:03:48;3.00;99.90
7192;DHT22;3637;51.494;11.958;2024-02-26T05:06:51;3.00;99.90
7192;DHT22;3637;51.494;11.958;2024-02-26T05:10:04;3.00;99.90
7192;DHT22;3637;51.494;11.958;2024-02-26T05:13:07;3.00;99.90
7192;DHT22;3637;51.494;11.958;2024-02-26T05:16:15;3.00;99.90
7192;DHT22;3637;51.494;11.958;2024-02-26T05:19:20;3.10;99.90
7192;DHT22;3637;51.494;11.958;2024-02-26T05:22:24;4.10;99.90
7192;DHT22;3637;51.494;11.958;2024-02-26T05:25:37;3.60;99.90
7192;DHT22;3637;51.494;11.958;2024-02-26T05:28:44;3.30;99.90
7192;DHT22;3637;51.494;11.958;2024-02-26T05:31:49;3.10;99.90
7192;DHT22;3637;51.494;11.958;2024-02-26T05:34:57;3.20;99.90
7192;DHT22;3637;51.494;11.958;2024-02-26T05:38:00;3.20;99.90
7192;DHT22;3637;51.494;11.958;2024-02-26T05:41:04;3.10;99.90
7192;DHT22;3637;51.494;11.958;2024-02-26T05:44:11;4.40;99.90
7192;DHT22;3637;51.494;11.958;2024-02-26T05:47:14;3.70;99.90
7192;DHT22;3637;51.494;11.958;2024-02-26T05:50:18;3.40;99.90
7192;DHT22;3637;51.494;11.958;2024-02-26T05:53:21;3.20;99.90
7192;DHT22;3637;51.494;11.958;2024-02-26T05:56:29;3.30;99.90
7192;DHT22;3637;51.494;11.958;2024-02-26T05:59:32;3.10;99.90
7192;DHT22;3637;51.494;11.958;2024-02-26T06:02:35;3.10;99.90
7192;DHT22;3637;51.494;11.958;2024-02-26T06:05:43;3.10;99.90
7192;DHT22;3637;51.494;11.958;2024-02-26T06:08:51;3.20;99.90
7192;DHT22;3637;51.494;11.958;2024-02-26T06:11:57;3.20;99.90
7192;DHT22;3637;51.494;11.958;2024-02-26T06:15:03;3.30;99.90
7192;DHT22;3637;51.494;11.958;2024-02-26T06:18:08;3.40;99.90
7192;DHT22;3637;51.494;11.958;2024-02-26T06:21:12;3.20;99.90
7192;DHT22;3637;51.494;11.958;2024-02-26T06:24:16;3.20;99.90
7192;DHT22;3637;51.494;11.958;2024-02-26T06:27:24;3.30;99.90
7192;DHT22;3637;51.494;11.958;2024-02-26T06:30:31;3.30;99.90
7192;DHT22;3637;51.494;11.958;2024-02-26T06:33:47;3.20;99.90
7192;DHT22;3637;51.494;11.958;2024-02-26T06:36:54;3.30;99.90
7192;DHT22;3637;51.494;11.958;2024-02-26T06:39:57;3.30;99.90
7192;DHT22;3637;51.494;11.958;2024-02-26T06:46:31;3.40;99.90
7192;DHT22;3637;51.494;11.958;2024-02-26T06:49:41;3.50;99.90
7192;DHT22;3637;51.494;11.958;2024-02-26T06:52:44;3.80;99.90
7192;DHT22;3637;51.494;11.958;2024-02-26T06:56:00;4.20;99.90
7192;DHT22;3637;51.494;11.958;2024-02-26T06:59:03;4.10;99.90
7192;DHT22;3637;51.494;11.958;2024-02-26T07:02:30;3.90;99.90
7192;DHT22;3637;51.494;11.958;2024-02-26T07:05:33;4.00;99.90
7192;DHT22;3637;51.494;11.958;2024-02-26T07:08:38;4.20;99.90
7192;DHT22;3637;51.494;11.958;2024-02-26T07:14:56;4.50;99.90
7192;DHT22;3637;51.494;11.958;2024-02-26T07:17:58;4.60;99.90
7192;DHT22;3637;51.494;11.958;2024-02-26T07:21:06;5.00;99.90
7192;DHT22;3637;51.494;11.958;2024-02-26T07:24:09;4.90;99.90
7192;DHT22;3637;51.494;11.958;2024-02-26T07:27:19;4.90;99.90
7192;DHT22;3637;51.494;11.958;2024-02-26T07:30:25;4.90;99.90
7192;DHT22;3637;51.494;11.958;2024-02-26T07:33:28;5.30;99.90
7192;DHT22;3637;51.494;11.958;2024-02-26T07:36:32;5.60;99.90
7192;DHT22;3637;51.494;11.958;2024-02-26T07:39:35;5.10;99.90
7192;DHT22;3637;51.494;11.958;2024-02-26T07:42:38;5.10;99.90
7192;DHT22;3637;51.494;11.958;2024-02-26T07:45:48;5.10;99.90
7192;DHT22;3637;51.494;11.958;2024-02-26T07:48:52;5.50;99.90
7192;DHT22;3637;51.494;11.958;2024-02-26T07:51:55;5.40;99.90
7192;DHT22;3637;51.494;11.958;2024-02-26T07:55:02;5.50;99.90
7192;DHT22;3637;51.494;11.958;2024-02-26T07:58:10;5.70;99.90
7192;DHT22;3637;51.494;11.958;2024-02-26T08:01:16;5.70;99.90
7192;DHT22;3637;51.494;11.958;2024-02-26T08:04:21;5.90;99.90
7192;DHT22;3637;51.494;11.958;2024-02-26T08:07:23;6.10;99.90
7192;DHT22;3637;51.494;11.958;2024-02-26T08:10:29;6.40;99.90
7192;DHT22;3637;51.494;11.958;2024-02-26T08:13:35;6.90;99.90
7192;DHT22;3637;51.494;11.958;2024-02-26T08:16:39;6.90;99.90
7192;DHT22;3637;51.494;11.958;2024-02-26T08:19:42;6.70;99.90
7192;DHT22;3637;51.494;11.958;2024-02-26T08:22:49;6.80;99.90
7192;DHT22;3637;51.494;11.958;2024-02-26T08:26:08;6.90;99.90
7192;DHT22;3637;51.494;11.958;2024-02-26T08:29:12;7.10;99.90
7192;DHT22;3637;51.494;11.958;2024-02-26T08:35:48;7.90;99.90
7192;DHT22;3637;51.494;11.958;2024-02-26T08:38:52;7.20;99.90
7192;DHT22;3637;51.494;11.958;2024-02-26T08:41:56;7.60;99.90
7192;DHT22;3637;51.494;11.958;2024-02-26T08:45:01;7.30;99.90
7192;DHT22;3637;51.494;11.958;2024-02-26T08:48:07;7.40;99.90
7192;DHT22;3637;51.494;11.958;2024-02-26T08:54:43;7.70;99.90
7192;DHT22;3637;51.494;11.958;2024-02-26T08:57:51;7.70;99.90
7192;DHT22;3637;51.494;11.958;2024-02-26T09:01:07;7.80;99.90
7192;DHT22;3637;51.494;11.958;2024-02-26T09:04:10;8.00;99.90
7192;DHT22;3637;51.494;11.958;2024-02-26T09:07:14;8.30;99.90
7192;DHT22;3637;51.494;11.958;2024-02-26T09:10:24;8.40;99.90
7192;DHT22;3637;51.494;11.958;2024-02-26T09:13:34;8.30;99.90
7192;DHT22;3637;51.494;11.958;2024-02-26T09:16:44;7.80;99.90
7192;DHT22;3637;51.494;11.958;2024-02-26T09:19:53;7.70;99.90
7192;DHT22;3637;51.494;11.958;2024-02-26T09:22:59;8.20;99.90
7192;DHT22;3637;51.494;11.958;2024-02-26T09:26:11;7.90;99.90
7192;DHT22;3637;51.494;11.958;2024-02-26T09:29:13;8.00;99.90
7192;DHT22;3637;51.494;11.958;2024-02-26T09:32:19;7.90;99.90
7192;DHT22;3637;51.494;11.958;2024-02-26T09:35:22;8.20;99.90
7192;DHT22;3637;51.494;11.958;2024-02-26T09:39:10;8.20;99.90
7192;DHT22;3637;51.494;11.958;2024-02-26T09:42:37;8.50;99.90
7192;DHT22;3637;51.494;11.958;2024-02-26T09:46:00;8.40;99.90
7192;DHT22;3637;51.494;11.958;2024-02-26T09:55:42;9.10;99.90
7192;DHT22;3637;51.494;11.958;2024-02-26T09:59:01;9.40;99.90
7192;DHT22;3637;51.494;11.958;2024-02-26T10:02:08;9.60;99.90
7192;DHT22;3637;51.494;11.958;2024-02-26T10:05:34;9.70;99.90
7192;DHT22;3637;51.494;11.958;2024-02-26T10:08:38;9.50;99.90
7192;DHT22;3637;51.494;11.958;2024-02-26T10:11:49;9.50;99.90
7192;DHT22;3637;51.494;11.958;2024-02-26T10:14:55;9.80;99.90
7192;DHT22;3637;51.494;11.958;2024-02-26T10:17:59;9.70;99.90
7192;DHT22;3637;51.494;11.958;2024-02-26T10:21:10;9.50;99.90
7192;DHT22;3637;51.494;11.958;2024-02-26T10:24:31;9.50;99.90
7192;DHT22;3637;51.494;11.958;2024-02-26T10:27:35;9.60;99.90
7192;DHT22;3637;51.494;11.958;2024-02-26T10:30:54;9.80;99.90
7192;DHT22;3637;51.494;11.958;2024-02-26T10:33:59;9.80;99.90
7192;DHT22;3637;51.494;11.958;2024-02-26T10:37:07;9.80;99.90
7192;DHT22;3637;51.494;11.958;2024-02-26T10:40:12;9.70;99.90
7192;DHT22;3637;51.494;11.958;2024-02-26T10:43:17;10.40;99.90
7192;DHT22;3637;51.494;11.958;2024-02-26T10:46:49;9.70;99.90
7192;DHT22;3637;51.494;11.958;2024-02-26T10:49:56;9.80;99.90
7192;DHT22;3637;51.494;11.958;2024-02-26T10:53:07;10.00;99.90
7192;DHT22;3637;51.494;11.958;2024-02-26T10:56:19;9.80;99.90
7192;DHT22;3637;51.494;11.958;2024-02-26T10:59:32;9.80;99.90
7192;DHT22;3637;51.494;11.958;2024-02-26T11:02:59;10.00;99.90
7192;DHT22;3637;51.494;11.958;2024-02-26T11:06:28;9.80;99.90
7192;DHT22;3637;51.494;11.958;2024-02-26T11:09:32;10.00;99.90
7192;DHT22;3637;51.494;11.958;2024-02-26T11:12:39;10.00;99.90
7192;DHT22;3637;51.494;11.958;2024-02-26T11:15:46;10.10;99.90
7192;DHT22;3637;51.494;11.958;2024-02-26T11:19:12;10.30;99.90
7192;DHT22;3637;51.494;11.958;2024-02-26T11:22:20;10.30;99.90
7192;DHT22;3637;51.494;11.958;2024-02-26T11:25:23;10.20;99.90
7192;DHT22;3637;51.494;11.958;2024-02-26T11:28:32;10.40;99.90
7192;DHT22;3637;51.494;11.958;2024-02-26T11:31:42;10.30;99.90
7192;DHT22;3637;51.494;11.958;2024-02-26T11:34:47;10.60;99.90
7192;DHT22;3637;51.494;11.958;2024-02-26T11:37:56;10.70;99.90
7192;DHT22;3637;51.494;11.958;2024-02-26T11:41:15;10.80;99.90
7192;DHT22;3637;51.494;11.958;2024-02-26T11:44:29;10.90;99.90
7192;DHT22;3637;51.494;11.958;2024-02-26T11:47:35;10.90;99.90
7192;DHT22;3637;51.494;11.958;2024-02-26T11:51:02;11.00;99.90
7192;DHT22;3637;51.494;11.958;2024-02-26T11:54:15;11.10;99.90
7192;DHT22;3637;51.494;11.958;2024-02-26T11:57:52;10.90;99.90
7192;DHT22;3637;51.494;11.958;2024-02-26T12:00:58;10.90;99.90
7192;DHT22;3637;51.494;11.958;2024-02-26T12:04:07;10.90;99.90
7192;DHT22;3637;51.494;11.958;2024-02-26T12:07:15;11.30;99.90
7192;DHT22;3637;51.494;11.958;2024-02-26T12:10:43;11.40;99.90
7192;DHT22;3637;51.494;11.958;2024-02-26T12:13:47;11.30;99.90
7192;DHT22;3637;51.494;11.958;2024-02-26T12:16:51;11.60;99.90
7192;DHT22;3637;51.494;11.958;2024-02-26T12:20:20;11.20;99.90
7192;DHT22;3637;51.494;11.958;2024-02-26T12:23:29;11.30;99.90
7192;DHT22;3637;51.494;11.958;2024-02-26T12:26:49;11.30;99.90
7192;DHT22;3637;51.494;11.958;2024-02-26T12:29:53;11.20;99.90
7192;DHT22;3637;51.494;11.958;2024-02-26T12:32:58;11.40;99.90
7192;DHT22;3637;51.494;11.958;2024-02-26T12:36:23;11.10;99.90
7192;DHT22;3637;51.494;11.958;2024-02-26T12:39:40;11.20;99.90
7192;DHT22;3637;51.494;11.958;2024-02-26T12:42:46;11.50;99.90
7192;DHT22;3637;51.494;11.958;2024-02-26T12:45:49;11.40;99.90
7192;DHT22;3637;51.494;11.958;2024-02-26T12:48:54;11.50;99.90
7192;DHT22;3637;51.494;11.958;2024-02-26T12:55:32;12.00;99.90
7192;DHT22;3637;51.494;11.958;2024-02-26T12:58:45;12.10;99.90
7192;DHT22;3637;51.494;11.958;2024-02-26T13:02:12;12.50;99.90
7192;DHT22;3637;51.494;11.958;2024-02-26T13:05:19;12.80;99.90
7192;DHT22;3637;51.494;11.958;2024-02-26T13:08:27;13.20;99.90
7192;DHT22;3637;51.494;11.958;2024-02-26T13:11:32;12.70;99.90
7192;DHT22;3637;51.494;11.958;2024-02-26T13:14:36;12.70;99.90
7192;DHT22;3637;51.494;11.958;2024-02-26T13:17:47;13.00;99.90
7192;DHT22;3637;51.494;11.958;2024-02-26T13:20:53;12.70;99.90
7192;DHT22;3637;51.494;11.958;2024-02-26T13:24:15;12.70;99.90
7192;DHT22;3637;51.494;11.958;2024-02-26T13:27:32;13.00;99.90
7192;DHT22;3637;51.494;11.958;2024-02-26T13:30:37;12.90;99.90
7192;DHT22;3637;51.494;11.958;2024-02-26T13:34:09;13.20;99.90
7192;DHT22;3637;51.494;11.958;2024-02-26T13:37:11;13.40;99.90
7192;DHT22;3637;51.494;11.958;2024-02-26T13:40:15;13.10;99.90
7192;DHT22;3637;51.494;11.958;2024-02-26T13:43:26;13.20;99.90
7192;DHT22;3637;51.494;11.958;2024-02-26T13:46:34;13.10;99.90
7192;DHT22;3637;51.494;11.958;2024-02-26T13:49:41;13.20;99.90
7192;DHT22;3637;51.494;11.958;2024-02-26T13:52:44;13.00;99.90
7192;DHT22;3637;51.494;11.958;2024-02-26T13:55:47;12.80;99.90
7192;DHT22;3637;51.494;11.958;2024-02-26T13:59:00;12.80;99.90
7192;DHT22;3637;51.494;11.958;2024-02-26T14:02:03;12.60;99.90
7192;DHT22;3637;51.494;11.958;2024-02-26T14:05:28;12.80;99.90
7192;DHT22;3637;51.494;11.958;2024-02-26T14:08:35;12.70;99.90
7192;DHT22;3637;51.494;11.958;2024-02-26T14:11:37;12.50;99.90
7192;DHT22;3637;51.494;11.958;2024-02-26T14:14:44;12.60;99.90
7192;DHT22;3637;51.494;11.958;2024-02-26T14:18:14;12.50;99.90
7192;DHT22;3637;51.494;11.958;2024-02-26T14:21:46;12.10;99.90
7192;DHT22;3637;51.494;11.958;2024-02-26T14:25:11;12.10;99.90
7192;DHT22;3637;51.494;11.958;2024-02-26T14:28:15;12.10;99.90
7192;DHT22;3637;51.494;11.958;2024-02-26T14:31:24;12.00;99.90
7192;DHT22;3637;51.494;11.958;2024-02-26T14:34:29;12.30;99.90
7192;DHT22;3637;51.494;11.958;2024-02-26T14:37:32;12.00;99.90
7192;DHT22;3637;51.494;11.958;2024-02-26T14:40:59;11.90;99.90
7192;DHT22;3637;51.494;11.958;2024-02-26T14:44:06;12.00;99.90
7192;DHT22;3637;51.494;11.958;2024-02-26T14:47:12;11.90;99.90
7192;DHT22;3637;51.494;11.958;2024-02-26T14:50:27;12.00;99.90
7192;DHT22;3637;51.494;11.958;2024-02-26T14:53:40;11.90;99.90
7192;DHT22;3637;51.494;11.958;2024-02-26T14:57:00;12.10;99.90
7192;DHT22;3637;51.494;11.958;2024-02-26T15:00:17;11.80;99.90
7192;DHT22;3637;51.494;11.958;2024-02-26T15:03:41;11.60;99.90
7192;DHT22;3637;51.494;11.958;2024-02-26T15:06:46;11.70;99.90
7192;DHT22;3637;51.494;11.958;2024-02-26T15:09:51;11.60;99.90
7192;DHT22;3637;51.494;11.958;2024-02-26T15:13:16;11.50;99.90
7192;DHT22;3637;51.494;11.958;2024-02-26T15:16:59;11.40;99.90
7192;DHT22;3637;51.494;11.958;2024-02-26T15:23:29;12.70;99.90
7192;DHT22;3637;51.494;11.958;2024-02-26T15:26:37;11.50;99.90
7192;DHT22;3637;51.494;11.958;2024-02-26T15:33:19;11.50;99.90
7192;DHT22;3637;51.494;11.958;2024-02-26T15:36:22;11.40;99.90
7192;DHT22;3637;51.494;11.958;2024-02-26T15:39:34;11.70;99.90
7192;DHT22;3637;51.494;11.958;2024-02-26T15:42:39;11.80;99.90
7192;DHT22;3637;51.494;11.958;2024-02-26T15:45:42;11.30;99.90
7192;DHT22;3637;51.494;11.958;2024-02-26T15:48:45;11.30;99.90
7192;DHT22;3637;51.494;11.958;2024-02-26T15:51:50;11.10;99.90
7192;DHT22;3637;51.494;11.958;2024-02-26T15:54:57;11.50;99.90
7192;DHT22;3637;51.494;11.958;2024-02-26T15:58:00;11.20;99.90
7192;DHT22;3637;51.494;11.958;2024-02-26T16:01:06;11.10;99.90
7192;DHT22;3637;51.494;11.958;2024-02-26T16:04:26;11.10;99.90
7192;DHT22;3637;51.494;11.958;2024-02-26T16:07:35;11.00;99.90
7192;DHT22;3637;51.494;11.958;2024-02-26T16:10:44;10.90;99.90
7192;DHT22;3637;51.494;11.958;2024-02-26T16:13:50;10.80;99.90
7192;DHT22;3637;51.494;11.958;2024-02-26T16:17:18;10.60;99.90
7192;DHT22;3637;51.494;11.958;2024-02-26T16:20:21;10.70;99.90
7192;DHT22;3637;51.494;11.958;2024-02-26T16:23:29;10.60;99.90
7192;DHT22;3637;51.494;11.958;2024-02-26T16:26:36;10.50;99.90
7192;DHT22;3637;51.494;11.958;2024-02-26T16:29:41;10.70;99.90
7192;DHT22;3637;51.494;11.958;2024-02-26T16:32:49;10.40;99.90
7192;DHT22;3637;51.494;11.958;2024-02-26T16:35:52;10.20;99.90
7192;DHT22;3637;51.494;11.958;2024-02-26T16:38:56;10.20;99.90
7192;DHT22;3637;51.494;11.958;2024-02-26T16:42:00;10.10;99.90
7192;DHT22;3637;51.494;11.958;2024-02-26T16:45:03;10.10;99.90
7192;DHT22;3637;51.494;11.958;2024-02-26T16:48:09;10.10;99.90
7192;DHT22;3637;51.494;11.958;2024-02-26T16:51:15;9.70;99.90
7192;DHT22;3637;51.494;11.958;2024-02-26T16:54:19;10.00;99.90
7192;DHT22;3637;51.494;11.958;2024-02-26T16:57:37;9.80;99.90
7192;DHT22;3637;51.494;11.958;2024-02-26T17:00:59;9.80;99.90
7192;DHT22;3637;51.494;11.958;2024-02-26T17:04:01;9.70;99.90
7192;DHT22;3637;51.494;11.958;2024-02-26T17:07:20;9.90;99.90
7192;DHT22;3637;51.494;11.958;2024-02-26T17:10:23;9.90;99.90
7192;DHT22;3637;51.494;11.958;2024-02-26T17:13:31;9.60;99.90
7192;DHT22;3637;51.494;11.958;2024-02-26T17:16:52;9.50;99.90
7192;DHT22;3637;51.494;11.958;2024-02-26T17:20:09;9.50;99.90
7192;DHT22;3637;51.494;11.958;2024-02-26T17:23:18;9.50;99.90
7192;DHT22;3637;51.494;11.958;2024-02-26T17:26:41;9.50;99.90
7192;DHT22;3637;51.494;11.958;2024-02-26T17:30:07;9.30;99.90
7192;DHT22;3637;51.494;11.958;2024-02-26T17:33:12;9.30;99.90
7192;DHT22;3637;51.494;11.958;2024-02-26T17:36:15;8.90;99.90
7192;DHT22;3637;51.494;11.958;2024-02-26T17:39:27;9.30;99.90
7192;DHT22;3637;51.494;11.958;2024-02-26T17:42:42;9.00;99.90
7192;DHT22;3637;51.494;11.958;2024-02-26T17:46:01;8.90;99.90
7192;DHT22;3637;51.494;11.958;2024-02-26T17:49:10;9.00;99.90
7192;DHT22;3637;51.494;11.958;2024-02-26T17:52:39;9.00;99.90
7192;DHT22;3637;51.494;11.958;2024-02-26T17:55:53;8.90;99.90
7192;DHT22;3637;51.494;11.958;2024-02-26T17:59:24;8.90;99.90
7192;DHT22;3637;51.494;11.958;2024-02-26T18:02:55;8.90;99.90
7192;DHT22;3637;51.494;11.958;2024-02-26T18:10:29;9.00;99.90
7192;DHT22;3637;51.494;11.958;2024-02-26T18:13:44;9.00;99.90
7192;DHT22;3637;51.494;11.958;2024-02-26T18:16:52;9.50;99.90
7192;DHT22;3637;51.494;11.958;2024-02-26T18:23:32;9.30;99.90
7192;DHT22;3637;51.494;11.958;2024-02-26T18:27:08;9.00;99.90
7192;DHT22;3637;51.494;11.958;2024-02-26T18:30:27;8.90;99.90
7192;DHT22;3637;51.494;11.958;2024-02-26T18:34:02;8.90;99.90
7192;DHT22;3637;51.494;11.958;2024-02-26T18:37:11;8.80;99.90
7192;DHT22;3637;51.494;11.958;2024-02-26T18:40:25;9.10;99.90
7192;DHT22;3637;51.494;11.958;2024-02-26T18:50:57;8.90;99.90
7192;DHT22;3637;51.494;11.958;2024-02-26T19:06:12;8.90;99.90
7192;DHT22;3637;51.494;11.958;2024-02-26T19:18:40;8.80;99.90
7192;DHT22;3637;51.494;11.958;2024-02-26T19:22:16;8.80;99.90
7192;DHT22;3637;51.494;11.958;2024-02-26T19:25:38;8.80;99.90
7192;DHT22;3637;51.494;11.958;2024-02-26T19:30:26;8.80;99.90
7192;DHT22;3637;51.494;11.958;2024-02-26T19:32:49;8.90;99.90
7192;DHT22;3637;51.494;11.958;2024-02-26T19:36:07;8.80;99.90
7192;DHT22;3637;51.494;11.958;2024-02-26T19:39:40;8.80;99.90
7192;DHT22;3637;51.494;11.958;2024-02-26T19:51:00;8.70;99.90
7192;DHT22;3637;51.494;11.958;2024-02-26T20:06:04;8.60;99.90
7192;DHT22;3637;51.494;11.958;2024-02-26T20:09:37;8.60;99.90
7192;DHT22;3637;51.494;11.958;2024-02-26T20:12:58;8.60;99.90
7192;DHT22;3637;51.494;11.958;2024-02-26T20:16:08;8.50;99.90
7192;DHT22;3637;51.494;11.958;2024-02-26T20:19:11;8.50;99.90
7192;DHT22;3637;51.494;11.958;2024-02-26T20:26:10;8.50;99.90
7192;DHT22;3637;51.494;11.958;2024-02-26T20:29:16;8.30;99.90
7192;DHT22;3637;51.494;11.958;2024-02-26T20:32:32;8.80;99.90
7192;DHT22;3637;51.494;11.958;2024-02-26T20:35:36;8.20;99.90
7192;DHT22;3637;51.494;11.958;2024-02-26T20:38:44;8.40;99.90
7192;DHT22;3637;51.494;11.958;2024-02-26T20:42:10;8.10;99.90
7192;DHT22;3637;51.494;11.958;2024-02-26T20:45:17;8.10;99.90
7192;DHT22;3637;51.494;11.958;2024-02-26T20:48:27;8.30;99.90
7192;DHT22;3637;51.494;11.958;2024-02-26T20:51:31;8.40;99.90
7192;DHT22;3637;51.494;11.958;2024-02-26T20:54:43;8.20;99.90
7192;DHT22;3637;51.494;11.958;2024-02-26T20:58:03;8.30;99.90
7192;DHT22;3637;51.494;11.958;2024-02-26T21:01:05;8.10;99.90
7192;DHT22;3637;51.494;11.958;2024-02-26T21:04:12;8.10;99.90
7192;DHT22;3637;51.494;11.958;2024-02-26T21:07:21;8.10;99.90
7192;DHT22;3637;51.494;11.958;2024-02-26T21:10:32;8.20;99.90
7192;DHT22;3637;51.494;11.958;2024-02-26T21:20:31;8.00;99.90
7192;DHT22;3637;51.494;11.958;2024-02-26T21:23:36;8.20;99.90
7192;DHT22;3637;51.494;11.958;2024-02-26T21:26:48;7.90;99.90
7192;DHT22;3637;51.494;11.958;2024-02-26T21:30:06;8.00;99.90
7192;DHT22;3637;51.494;11.958;2024-02-26T21:33:29;7.80;99.90
7192;DHT22;3637;51.494;11.958;2024-02-26T21:36:47;7.80;99.90
7192;DHT22;3637;51.494;11.958;2024-02-26T21:39:55;7.80;99.90
7192;DHT22;3637;51.494;11.958;2024-02-26T21:42:57;7.40;99.90
7192;DHT22;3637;51.494;11.958;2024-02-26T21:57:41;7.40;99.90
7192;DHT22;3637;51.494;11.958;2024-02-26T22:00:48;7.20;99.90
7192;DHT22;3637;51.494;11.958;2024-02-26T22:03:59;7.30;99.90
7192;DHT22;3637;51.494;11.958;2024-02-26T22:07:13;7.40;99.90
7192;DHT22;3637;51.494;11.958;2024-02-26T22:10:33;7.30;99.90
7192;DHT22;3637;51.494;11.958;2024-02-26T22:13:43;7.70;99.90
7192;DHT22;3637;51.494;11.958;2024-02-26T22:16:50;7.30;99.90